sensor_id;sensor_type;location;lat;lon;timestamp;pressure;altitude;pressure_sealevel;temperature;humidity
41078;BME280;26823;42.662;23.352;2023-12-22T00:00:45;156239.88;;;0.47;89.43
41078;BME280;26823;42.662;23.352;2023-12-22T00:03:13;156150.28;;;0.13;89.64
41078;BME280;26823;42.662;23.352;2023-12-22T00:05:39;156171.66;;;0.21;90.02
41078;BME280;26823;42.662;23.352;2023-12-22T00:08:05;156171.66;;;0.21;90.55
41078;BME280;26823;42.662;23.352;2023-12-22T00:10:30;156199.75;;;0.32;90.21
41078;BME280;26823;42.662;23.352;2023-12-22T00:12:56;156181.03;;;0.25;90.13
41078;BME280;26823;42.662;23.352;2023-12-22T00:15:21;156156.97;;;0.15;90.74
41078;BME280;26823;42.662;23.352;2023-12-22T00:17:47;156112.81;;;-0.02;91.72
41078;BME280;26823;42.662;23.352;2023-12-22T00:20:13;156120.88;;;0.02;92.04
41078;BME280;26823;42.662;23.352;2023-12-22T00:22:39;156144.91;;;0.11;92.12
41078;BME280;26823;42.662;23.352;2023-12-22T00:25:05;156150.28;;;0.13;91.51
41078;BME280;26823;42.662;23.352;2023-12-22T00:27:32;156080.78;;;-0.14;92.58
41078;BME280;26823;42.662;23.352;2023-12-22T00:29:57;156100.81;;;-0.06;92.82
41078;BME280;26823;42.662;23.352;2023-12-22T00:32:23;156107.50;;;-0.04;92.42
41078;BME280;26823;42.662;23.352;2023-12-22T00:34:48;156099.44;;;-0.07;92.42
41078;BME280;26823;42.662;23.352;2023-12-22T00:37:14;156114.19;;;-0.01;92.23
41078;BME280;26823;42.662;23.352;2023-12-22T00:39:39;156100.81;;;-0.06;92.34
41078;BME280;26823;42.662;23.352;2023-12-22T00:42:05;156092.78;;;-0.09;92.92
41078;BME280;26823;42.662;23.352;2023-12-22T00:44:30;156066.03;;;-0.20;92.61
41078;BME280;26823;42.662;23.352;2023-12-22T00:46:55;156067.34;;;-0.19;92.97
41078;BME280;26823;42.662;23.352;2023-12-22T00:49:21;156098.13;;;-0.07;93.26
41078;BME280;26823;42.662;23.352;2023-12-22T00:51:47;156100.81;;;-0.06;92.56
41078;BME280;26823;42.662;23.352;2023-12-22T00:54:12;156136.91;;;0.08;92.45
41078;BME280;26823;42.662;23.352;2023-12-22T00:56:38;156151.59;;;0.13;92.21
41078;BME280;26823;42.662;23.352;2023-12-22T00:59:03;156140.91;;;0.09;92.08
41078;BME280;26823;42.662;23.352;2023-12-22T01:01:29;156136.91;;;0.08;92.14
41078;BME280;26823;42.662;23.352;2023-12-22T01:03:54;156202.44;;;0.33;92.03
41078;BME280;26823;42.662;23.352;2023-12-22T01:06:19;156183.72;;;0.26;91.78
41078;BME280;26823;42.662;23.352;2023-12-22T01:08:45;156247.88;;;0.51;91.60
41078;BME280;26823;42.662;23.352;2023-12-22T01:11:10;156261.25;;;0.56;91.41
41078;BME280;26823;42.662;23.352;2023-12-22T01:13:36;156268.00;;;0.58;90.95
41078;BME280;26823;42.662;23.352;2023-12-22T01:16:01;156272.00;;;0.60;91.00
41078;BME280;26823;42.662;23.352;2023-12-22T01:18:27;156249.25;;;0.51;90.94
41078;BME280;26823;42.662;23.352;2023-12-22T01:20:55;156298.75;;;0.70;90.62
41078;BME280;26823;42.662;23.352;2023-12-22T01:23:20;156322.81;;;0.79;90.60
41078;BME280;26823;42.662;23.352;2023-12-22T01:25:46;156332.19;;;0.83;90.42
41078;BME280;26823;42.662;23.352;2023-12-22T01:28:11;156348.25;;;0.89;90.09
41078;BME280;26823;42.662;23.352;2023-12-22T01:30:36;156357.63;;;0.93;89.77
41078;BME280;26823;42.662;23.352;2023-12-22T01:33:02;156361.63;;;0.94;89.61
41078;BME280;26823;42.662;23.352;2023-12-22T01:35:28;156375.00;;;1.00;89.35
41078;BME280;26823;42.662;23.352;2023-12-22T01:37:53;156375.00;;;1.00;89.44
41078;BME280;26823;42.662;23.352;2023-12-22T01:40:19;156375.00;;;1.00;88.99
41078;BME280;26823;42.662;23.352;2023-12-22T01:42:45;156375.00;;;1.00;88.57
41078;BME280;26823;42.662;23.352;2023-12-22T01:45:11;156380.34;;;1.02;88.97
41078;BME280;26823;42.662;23.352;2023-12-22T01:47:37;156356.25;;;0.92;88.88
41078;BME280;26823;42.662;23.352;2023-12-22T01:50:03;156340.22;;;0.86;88.96
41078;BME280;26823;42.662;23.352;2023-12-22T01:52:28;156380.34;;;1.02;89.19
41078;BME280;26823;42.662;23.352;2023-12-22T01:54:54;156380.34;;;1.02;88.17
41078;BME280;26823;42.662;23.352;2023-12-22T01:57:21;156391.06;;;1.06;88.34
41078;BME280;26823;42.662;23.352;2023-12-22T01:59:48;156383.03;;;1.03;87.06
41078;BME280;26823;42.662;23.352;2023-12-22T02:02:14;156389.75;;;1.05;86.66
41078;BME280;26823;42.662;23.352;2023-12-22T02:04:39;156387.06;;;1.04;87.43
41078;BME280;26823;42.662;23.352;2023-12-22T02:07:06;156377.69;;;1.01;86.70
41078;BME280;26823;42.662;23.352;2023-12-22T02:09:34;156405.75;;;1.11;87.45
41078;BME280;26823;42.662;23.352;2023-12-22T02:12:00;156412.44;;;1.14;86.86
41078;BME280;26823;42.662;23.352;2023-12-22T02:14:26;156384.38;;;1.03;87.20
41078;BME280;26823;42.662;23.352;2023-12-22T02:19:56;156440.56;;;1.25;86.53
41078;BME280;26823;42.662;23.352;2023-12-22T02:22:21;156432.56;;;1.22;86.53
41078;BME280;26823;42.662;23.352;2023-12-22T02:24:47;156360.28;;;0.94;86.26
41078;BME280;26823;42.662;23.352;2023-12-22T02:30:02;156377.69;;;1.01;87.04
41078;BME280;26823;42.662;23.352;2023-12-22T02:32:32;156392.38;;;1.06;87.12
41078;BME280;26823;42.662;23.352;2023-12-22T02:35:03;156379.00;;;1.01;87.41
41078;BME280;26823;42.662;23.352;2023-12-22T02:37:30;156432.56;;;1.22;87.05
41078;BME280;26823;42.662;23.352;2023-12-22T02:39:58;156342.88;;;0.87;88.24
41078;BME280;26823;42.662;23.352;2023-12-22T02:42:25;156332.19;;;0.83;88.79
41078;BME280;26823;42.662;23.352;2023-12-22T02:44:58;156354.91;;;0.92;89.34
41078;BME280;26823;42.662;23.352;2023-12-22T02:47:24;156372.31;;;0.98;88.82
41078;BME280;26823;42.662;23.352;2023-12-22T02:49:49;156431.19;;;1.21;88.47
41078;BME280;26823;42.662;23.352;2023-12-22T02:52:15;156433.88;;;1.22;87.65
41078;BME280;26823;42.662;23.352;2023-12-22T02:54:40;156456.63;;;1.31;87.75
41078;BME280;26823;42.662;23.352;2023-12-22T02:57:09;156455.31;;;1.30;87.59
41078;BME280;26823;42.662;23.352;2023-12-22T02:59:34;156466.00;;;1.35;87.51
41078;BME280;26823;42.662;23.352;2023-12-22T03:02:00;156449.94;;;1.28;87.65
41078;BME280;26823;42.662;23.352;2023-12-22T03:04:25;156431.19;;;1.21;87.39
41078;BME280;26823;42.662;23.352;2023-12-22T03:06:51;156499.47;;;1.48;87.77
41078;BME280;26823;42.662;23.352;2023-12-22T03:09:16;156492.78;;;1.45;88.27
41078;BME280;26823;42.662;23.352;2023-12-22T03:11:42;156447.25;;;1.27;87.75
41078;BME280;26823;42.662;23.352;2023-12-22T03:14:08;156443.25;;;1.26;88.17
41078;BME280;26823;42.662;23.352;2023-12-22T03:16:34;156441.88;;;1.25;88.68
41078;BME280;26823;42.662;23.352;2023-12-22T03:18:59;156453.94;;;1.30;88.28
41078;BME280;26823;42.662;23.352;2023-12-22T03:21:25;156463.31;;;1.34;87.77
41078;BME280;26823;42.662;23.352;2023-12-22T03:23:50;156306.75;;;0.73;88.68
41078;BME280;26823;42.662;23.352;2023-12-22T03:26:16;156268.00;;;0.58;90.36
41078;BME280;26823;42.662;23.352;2023-12-22T03:28:41;156270.63;;;0.59;91.06
41078;BME280;26823;42.662;23.352;2023-12-22T03:31:06;156288.06;;;0.66;91.68
41078;BME280;26823;42.662;23.352;2023-12-22T03:33:33;156250.56;;;0.52;92.06
41078;BME280;26823;42.662;23.352;2023-12-22T03:35:58;156272.00;;;0.60;91.88
41078;BME280;26823;42.662;23.352;2023-12-22T03:38:23;156308.09;;;0.74;91.88
41078;BME280;26823;42.662;23.352;2023-12-22T03:40:49;156329.50;;;0.82;91.32
41078;BME280;26823;42.662;23.352;2023-12-22T03:43:14;156362.94;;;0.95;90.53
41078;BME280;26823;42.662;23.352;2023-12-22T03:45:40;156345.56;;;0.88;89.75
41078;BME280;26823;42.662;23.352;2023-12-22T03:48:06;156385.69;;;1.04;89.91
41078;BME280;26823;42.662;23.352;2023-12-22T03:50:31;156405.75;;;1.11;89.62
41078;BME280;26823;42.662;23.352;2023-12-22T03:52:57;156412.44;;;1.14;89.07
41078;BME280;26823;42.662;23.352;2023-12-22T03:55:22;156432.56;;;1.22;89.87
41078;BME280;26823;42.662;23.352;2023-12-22T03:57:48;156448.56;;;1.28;89.65
41078;BME280;26823;42.662;23.352;2023-12-22T04:00:13;156452.63;;;1.29;89.36
41078;BME280;26823;42.662;23.352;2023-12-22T04:02:40;156464.63;;;1.34;89.65
41078;BME280;26823;42.662;23.352;2023-12-22T04:05:05;156482.06;;;1.41;89.09
41078;BME280;26823;42.662;23.352;2023-12-22T04:07:31;156488.78;;;1.43;89.35
41078;BME280;26823;42.662;23.352;2023-12-22T04:09:56;156486.09;;;1.42;90.10
41078;BME280;26823;42.662;23.352;2023-12-22T04:12:22;156484.72;;;1.42;89.82
41078;BME280;26823;42.662;23.352;2023-12-22T04:14:47;156494.09;;;1.45;89.63
41078;BME280;26823;42.662;23.352;2023-12-22T04:17:12;156491.44;;;1.44;89.35
41078;BME280;26823;42.662;23.352;2023-12-22T04:19:38;156502.16;;;1.49;89.54
41078;BME280;26823;42.662;23.352;2023-12-22T04:22:03;156510.16;;;1.52;90.09
41078;BME280;26823;42.662;23.352;2023-12-22T04:24:29;156524.91;;;1.57;89.96
41078;BME280;26823;42.662;23.352;2023-12-22T04:26:54;156536.94;;;1.62;89.56
41078;BME280;26823;42.662;23.352;2023-12-22T04:29:20;156532.91;;;1.60;89.25
41078;BME280;26823;42.662;23.352;2023-12-22T04:31:45;156557.00;;;1.70;89.09
41078;BME280;26823;42.662;23.352;2023-12-22T04:34:13;156490.09;;;1.44;89.98
41078;BME280;26823;42.662;23.352;2023-12-22T04:36:39;156554.38;;;1.69;91.05
41078;BME280;26823;42.662;23.352;2023-12-22T04:39:05;156571.75;;;1.75;90.47
41078;BME280;26823;42.662;23.352;2023-12-22T04:41:30;156567.75;;;1.74;91.05
41078;BME280;26823;42.662;23.352;2023-12-22T04:43:55;156563.75;;;1.72;90.92
41078;BME280;26823;42.662;23.352;2023-12-22T04:46:21;156565.06;;;1.73;91.36
41078;BME280;26823;42.662;23.352;2023-12-22T04:48:46;156522.22;;;1.56;92.86
41078;BME280;26823;42.662;23.352;2023-12-22T04:51:12;156562.38;;;1.72;93.38
41078;BME280;26823;42.662;23.352;2023-12-22T04:53:37;156566.38;;;1.73;93.14
41078;BME280;26823;42.662;23.352;2023-12-22T04:56:03;156582.44;;;1.79;93.57
41078;BME280;26823;42.662;23.352;2023-12-22T04:58:28;156569.06;;;1.74;93.16
41078;BME280;26823;42.662;23.352;2023-12-22T05:00:54;156577.13;;;1.77;93.18
41078;BME280;26823;42.662;23.352;2023-12-22T05:03:19;156563.75;;;1.72;91.61
41078;BME280;26823;42.662;23.352;2023-12-22T05:05:44;156546.31;;;1.66;91.61
41078;BME280;26823;42.662;23.352;2023-12-22T05:08:10;156532.91;;;1.60;91.90
41078;BME280;26823;42.662;23.352;2023-12-22T05:10:35;156549.00;;;1.67;92.16
41078;BME280;26823;42.662;23.352;2023-12-22T05:13:01;156506.16;;;1.50;91.77
41078;BME280;26823;42.662;23.352;2023-12-22T05:15:26;156515.53;;;1.54;91.26
41078;BME280;26823;42.662;23.352;2023-12-22T05:17:52;156527.59;;;1.58;92.15
41078;BME280;26823;42.662;23.352;2023-12-22T05:20:17;156467.31;;;1.35;91.11
41078;BME280;26823;42.662;23.352;2023-12-22T05:22:43;156482.06;;;1.41;91.07
41078;BME280;26823;42.662;23.352;2023-12-22T05:25:08;156478.03;;;1.39;91.69
41078;BME280;26823;42.662;23.352;2023-12-22T05:27:35;156476.69;;;1.39;90.46
41078;BME280;26823;42.662;23.352;2023-12-22T05:30:01;156470.00;;;1.36;92.26
41078;BME280;26823;42.662;23.352;2023-12-22T05:32:29;156492.78;;;1.45;93.16
41078;BME280;26823;42.662;23.352;2023-12-22T05:34:54;156510.16;;;1.52;93.21
41078;BME280;26823;42.662;23.352;2023-12-22T05:37:20;156502.16;;;1.49;92.23
41078;BME280;26823;42.662;23.352;2023-12-22T05:39:45;156512.84;;;1.53;92.72
41078;BME280;26823;42.662;23.352;2023-12-22T05:42:11;156514.16;;;1.53;94.03
41078;BME280;26823;42.662;23.352;2023-12-22T05:44:36;156492.78;;;1.45;93.02
41078;BME280;26823;42.662;23.352;2023-12-22T05:47:04;156523.53;;;1.57;93.45
41078;BME280;26823;42.662;23.352;2023-12-22T05:49:30;156542.28;;;1.64;93.59
41078;BME280;26823;42.662;23.352;2023-12-22T05:51:56;156538.28;;;1.62;92.48
41078;BME280;26823;42.662;23.352;2023-12-22T05:54:21;156526.22;;;1.58;92.53
41078;BME280;26823;42.662;23.352;2023-12-22T05:56:47;156470.00;;;1.36;94.65
41078;BME280;26823;42.662;23.352;2023-12-22T05:59:13;156506.16;;;1.50;94.50
41078;BME280;26823;42.662;23.352;2023-12-22T06:01:38;156502.16;;;1.49;94.75
41078;BME280;26823;42.662;23.352;2023-12-22T06:04:04;156462.00;;;1.33;95.49
41078;BME280;26823;42.662;23.352;2023-12-22T06:06:31;156474.00;;;1.38;95.53
41078;BME280;26823;42.662;23.352;2023-12-22T06:08:56;156496.78;;;1.46;95.72
41078;BME280;26823;42.662;23.352;2023-12-22T06:11:21;156506.16;;;1.50;95.31
41078;BME280;26823;42.662;23.352;2023-12-22T06:13:47;156547.66;;;1.66;95.36
41078;BME280;26823;42.662;23.352;2023-12-22T06:16:16;156526.22;;;1.58;95.88
41078;BME280;26823;42.662;23.352;2023-12-22T06:18:43;156575.75;;;1.77;95.39
41078;BME280;26823;42.662;23.352;2023-12-22T06:21:09;156594.53;;;1.84;95.01
41078;BME280;26823;42.662;23.352;2023-12-22T06:23:35;156610.59;;;1.90;94.62
41078;BME280;26823;42.662;23.352;2023-12-22T06:26:02;156617.28;;;1.93;94.57
41078;BME280;26823;42.662;23.352;2023-12-22T06:28:28;156626.66;;;1.97;94.12
41078;BME280;26823;42.662;23.352;2023-12-22T06:30:53;156633.38;;;1.99;95.26
41078;BME280;26823;42.662;23.352;2023-12-22T06:33:19;156656.13;;;2.08;95.24
41078;BME280;26823;42.662;23.352;2023-12-22T06:35:45;156661.47;;;2.10;95.51
41078;BME280;26823;42.662;23.352;2023-12-22T06:38:10;156642.75;;;2.03;95.11
41078;BME280;26823;42.662;23.352;2023-12-22T06:40:37;156658.78;;;2.09;95.45
41078;BME280;26823;42.662;23.352;2023-12-22T06:43:03;156686.91;;;2.20;95.19
41078;BME280;26823;42.662;23.352;2023-12-22T06:45:29;156708.31;;;2.28;94.87
41078;BME280;26823;42.662;23.352;2023-12-22T06:47:55;156716.38;;;2.31;95.16
41078;BME280;26823;42.662;23.352;2023-12-22T06:50:20;156737.78;;;2.39;94.46
41078;BME280;26823;42.662;23.352;2023-12-22T06:52:45;156736.47;;;2.39;94.16
41078;BME280;26823;42.662;23.352;2023-12-22T06:55:11;156745.84;;;2.42;95.03
41078;BME280;26823;42.662;23.352;2023-12-22T06:57:36;156694.94;;;2.23;94.11
41078;BME280;26823;42.662;23.352;2023-12-22T07:00:02;156712.38;;;2.30;94.71
41078;BME280;26823;42.662;23.352;2023-12-22T07:02:27;156686.91;;;2.20;94.65
41078;BME280;26823;42.662;23.352;2023-12-22T07:07:37;156672.16;;;2.14;96.10
41078;BME280;26823;42.662;23.352;2023-12-22T07:10:03;156693.59;;;2.22;95.78
41078;BME280;26823;42.662;23.352;2023-12-22T07:12:28;156697.63;;;2.24;96.61
41078;BME280;26823;42.662;23.352;2023-12-22T07:14:54;156613.28;;;1.91;96.93
41078;BME280;26823;42.662;23.352;2023-12-22T07:17:19;156652.06;;;2.06;97.16
41078;BME280;26823;42.662;23.352;2023-12-22T07:19:45;156657.44;;;2.08;97.55
41078;BME280;26823;42.662;23.352;2023-12-22T07:22:10;156692.28;;;2.22;97.72
41078;BME280;26823;42.662;23.352;2023-12-22T07:24:36;156648.06;;;2.05;97.41
41078;BME280;26823;42.662;23.352;2023-12-22T07:27:01;156719.06;;;2.32;97.31
41078;BME280;26823;42.662;23.352;2023-12-22T07:29:27;156729.78;;;2.36;97.04
41078;BME280;26823;42.662;23.352;2023-12-22T07:31:52;156753.88;;;2.45;96.04
41078;BME280;26823;42.662;23.352;2023-12-22T07:34:18;156778.03;;;2.55;96.63
41078;BME280;26823;42.662;23.352;2023-12-22T07:36:43;156803.44;;;2.65;97.18
41078;BME280;26823;42.662;23.352;2023-12-22T07:39:09;156810.13;;;2.67;96.42
41078;BME280;26823;42.662;23.352;2023-12-22T07:41:36;156788.72;;;2.59;96.49
41078;BME280;26823;42.662;23.352;2023-12-22T07:44:01;156703.00;;;2.26;97.75
41078;BME280;26823;42.662;23.352;2023-12-22T07:46:27;156729.78;;;2.36;98.52
41078;BME280;26823;42.662;23.352;2023-12-22T07:48:53;156767.25;;;2.51;98.59
41078;BME280;26823;42.662;23.352;2023-12-22T07:51:20;156716.38;;;2.31;98.22
41078;BME280;26823;42.662;23.352;2023-12-22T07:53:46;156790.03;;;2.59;99.09
41078;BME280;26823;42.662;23.352;2023-12-22T07:56:11;156771.31;;;2.52;98.78
41078;BME280;26823;42.662;23.352;2023-12-22T07:58:37;156792.72;;;2.60;98.86
41078;BME280;26823;42.662;23.352;2023-12-22T08:01:03;156811.50;;;2.68;98.62
41078;BME280;26823;42.662;23.352;2023-12-22T08:03:30;156812.81;;;2.68;98.11
41078;BME280;26823;42.662;23.352;2023-12-22T08:05:56;156815.50;;;2.69;97.82
41078;BME280;26823;42.662;23.352;2023-12-22T08:08:21;156812.81;;;2.68;97.88
41078;BME280;26823;42.662;23.352;2023-12-22T08:10:47;156862.41;;;2.87;97.55
41078;BME280;26823;42.662;23.352;2023-12-22T08:13:13;156861.06;;;2.87;97.77
41078;BME280;26823;42.662;23.352;2023-12-22T08:15:39;156879.84;;;2.94;97.36
41078;BME280;26823;42.662;23.352;2023-12-22T08:18:04;156894.56;;;3.00;97.99
41078;BME280;26823;42.662;23.352;2023-12-22T08:20:30;156906.66;;;3.04;98.40
41078;BME280;26823;42.662;23.352;2023-12-22T08:22:55;156937.44;;;3.16;99.05
41078;BME280;26823;42.662;23.352;2023-12-22T08:25:21;156946.84;;;3.20;98.52
41078;BME280;26823;42.662;23.352;2023-12-22T08:27:46;156966.94;;;3.28;98.62
41078;BME280;26823;42.662;23.352;2023-12-22T08:30:12;156989.72;;;3.36;98.36
41078;BME280;26823;42.662;23.352;2023-12-22T08:32:39;156984.34;;;3.34;98.76
41078;BME280;26823;42.662;23.352;2023-12-22T08:35:05;157008.53;;;3.43;99.29
41078;BME280;26823;42.662;23.352;2023-12-22T08:37:31;157019.22;;;3.48;99.39
41078;BME280;26823;42.662;23.352;2023-12-22T08:39:56;157019.22;;;3.48;99.22
41078;BME280;26823;42.662;23.352;2023-12-22T08:42:23;157016.53;;;3.47;99.46
41078;BME280;26823;42.662;23.352;2023-12-22T08:44:50;157033.94;;;3.53;99.21
41078;BME280;26823;42.662;23.352;2023-12-22T08:47:15;157039.34;;;3.55;99.08
41078;BME280;26823;42.662;23.352;2023-12-22T08:49:41;157043.34;;;3.57;98.75
41078;BME280;26823;42.662;23.352;2023-12-22T08:52:07;157052.75;;;3.61;98.45
41078;BME280;26823;42.662;23.352;2023-12-22T08:54:32;157071.53;;;3.68;98.47
41078;BME280;26823;42.662;23.352;2023-12-22T08:56:59;157076.84;;;3.70;98.72
41078;BME280;26823;42.662;23.352;2023-12-22T08:59:24;157084.94;;;3.73;98.02
41078;BME280;26823;42.662;23.352;2023-12-22T09:01:50;157090.31;;;3.75;98.02
41078;BME280;26823;42.662;23.352;2023-12-22T09:04:15;157084.94;;;3.73;97.59
41078;BME280;26823;42.662;23.352;2023-12-22T09:06:41;157098.34;;;3.78;98.11
41078;BME280;26823;42.662;23.352;2023-12-22T09:09:07;157098.34;;;3.78;98.95
41078;BME280;26823;42.662;23.352;2023-12-22T09:11:34;157115.75;;;3.85;99.11
41078;BME280;26823;42.662;23.352;2023-12-22T09:14:00;157125.16;;;3.88;98.75
41078;BME280;26823;42.662;23.352;2023-12-22T09:16:26;157126.53;;;3.89;98.99
41078;BME280;26823;42.662;23.352;2023-12-22T09:18:51;157139.94;;;3.94;99.14
41078;BME280;26823;42.662;23.352;2023-12-22T09:21:17;157141.25;;;3.95;99.75
41078;BME280;26823;42.662;23.352;2023-12-22T09:23:46;157141.25;;;3.95;99.75
41078;BME280;26823;42.662;23.352;2023-12-22T09:26:13;157161.34;;;4.02;100.00
41078;BME280;26823;42.662;23.352;2023-12-22T09:28:40;157166.75;;;4.04;100.00
41078;BME280;26823;42.662;23.352;2023-12-22T09:31:06;157158.66;;;4.01;100.00
41078;BME280;26823;42.662;23.352;2023-12-22T09:33:32;157151.97;;;3.99;99.96
41078;BME280;26823;42.662;23.352;2023-12-22T09:35:57;157161.34;;;4.02;99.87
41078;BME280;26823;42.662;23.352;2023-12-22T09:38:23;157043.34;;;3.57;100.00
41078;BME280;26823;42.662;23.352;2023-12-22T09:40:51;157042.03;;;3.56;100.00
41078;BME280;26823;42.662;23.352;2023-12-22T09:43:19;157013.84;;;3.46;100.00
41078;BME280;26823;42.662;23.352;2023-12-22T09:45:52;156977.66;;;3.32;100.00
41078;BME280;26823;42.662;23.352;2023-12-22T09:48:18;156999.13;;;3.40;100.00
41078;BME280;26823;42.662;23.352;2023-12-22T09:50:45;157025.94;;;3.50;100.00
41078;BME280;26823;42.662;23.352;2023-12-22T09:53:13;157044.72;;;3.57;100.00
41078;BME280;26823;42.662;23.352;2023-12-22T09:55:45;157083.59;;;3.72;100.00
41078;BME280;26823;42.662;23.352;2023-12-22T09:58:12;157126.53;;;3.89;100.00
41078;BME280;26823;42.662;23.352;2023-12-22T10:00:38;157086.25;;;3.73;100.00
41078;BME280;26823;42.662;23.352;2023-12-22T10:03:06;157028.63;;;3.51;100.00
41078;BME280;26823;42.662;23.352;2023-12-22T10:05:35;157009.84;;;3.44;100.00
41078;BME280;26823;42.662;23.352;2023-12-22T10:08:01;156964.25;;;3.26;100.00
41078;BME280;26823;42.662;23.352;2023-12-22T10:10:28;157052.75;;;3.61;100.00
41078;BME280;26823;42.662;23.352;2023-12-22T10:12:57;157083.59;;;3.72;100.00
41078;BME280;26823;42.662;23.352;2023-12-22T10:15:23;157115.75;;;3.85;100.00
41078;BME280;26823;42.662;23.352;2023-12-22T10:17:50;157153.34;;;3.99;100.00
41078;BME280;26823;42.662;23.352;2023-12-22T10:20:17;157181.47;;;4.10;100.00
41078;BME280;26823;42.662;23.352;2023-12-22T10:22:42;157198.94;;;4.17;100.00
41078;BME280;26823;42.662;23.352;2023-12-22T10:25:08;157210.97;;;4.21;100.00
41078;BME280;26823;42.662;23.352;2023-12-22T10:27:35;157247.19;;;4.35;100.00
41078;BME280;26823;42.662;23.352;2023-12-22T10:30:02;157284.78;;;4.50;100.00
41078;BME280;26823;42.662;23.352;2023-12-22T10:32:29;157323.66;;;4.65;100.00
41078;BME280;26823;42.662;23.352;2023-12-22T10:34:55;157354.56;;;4.77;100.00
41078;BME280;26823;42.662;23.352;2023-12-22T10:37:22;157406.91;;;4.97;99.71
41078;BME280;26823;42.662;23.352;2023-12-22T10:39:52;157424.34;;;5.03;99.18
41078;BME280;26823;42.662;23.352;2023-12-22T10:42:18;157507.53;;;5.35;98.89
41078;BME280;26823;42.662;23.352;2023-12-22T10:44:43;157533.06;;;5.45;98.28
41078;BME280;26823;42.662;23.352;2023-12-22T10:47:10;157562.59;;;5.57;97.78
41078;BME280;26823;42.662;23.352;2023-12-22T10:49:36;157606.91;;;5.74;97.47
41078;BME280;26823;42.662;23.352;2023-12-22T10:52:03;157655.25;;;5.92;96.98
41078;BME280;26823;42.662;23.352;2023-12-22T10:54:30;157772.16;;;6.37;95.47
41078;BME280;26823;42.662;23.352;2023-12-22T10:56:59;157875.66;;;6.77;94.79
41078;BME280;26823;42.662;23.352;2023-12-22T10:59:31;158000.66;;;7.25;91.56
41078;BME280;26823;42.662;23.352;2023-12-22T11:01:58;158166.03;;;7.88;88.60
41078;BME280;26823;42.662;23.352;2023-12-22T11:04:31;158296.50;;;8.38;84.62
41078;BME280;26823;42.662;23.352;2023-12-22T11:07:03;158412.25;;;8.82;82.86
41078;BME280;26823;42.662;23.352;2023-12-22T11:09:31;158436.53;;;8.92;81.31
41078;BME280;26823;42.662;23.352;2023-12-22T11:11:57;158439.16;;;8.93;80.77
41078;BME280;26823;42.662;23.352;2023-12-22T11:14:23;158494.38;;;9.14;81.15
41078;BME280;26823;42.662;23.352;2023-12-22T11:16:52;158540.16;;;9.32;79.83
41078;BME280;26823;42.662;23.352;2023-12-22T11:19:19;158560.34;;;9.39;79.51
41078;BME280;26823;42.662;23.352;2023-12-22T11:21:47;158761.00;;;10.16;77.68
41078;BME280;26823;42.662;23.352;2023-12-22T11:24:15;158862.06;;;10.55;76.24
41078;BME280;26823;42.662;23.352;2023-12-22T11:26:42;158921.38;;;10.77;74.56
41078;BME280;26823;42.662;23.352;2023-12-22T11:29:09;158836.50;;;10.45;74.84
41078;BME280;26823;42.662;23.352;2023-12-22T11:31:36;158854.00;;;10.52;73.80
41078;BME280;26823;42.662;23.352;2023-12-22T11:34:04;158907.91;;;10.72;71.46
41078;BME280;26823;42.662;23.352;2023-12-22T11:36:31;158895.75;;;10.68;71.05
41078;BME280;26823;42.662;23.352;2023-12-22T11:38:57;158905.19;;;10.71;71.06
41078;BME280;26823;42.662;23.352;2023-12-22T11:41:25;158910.59;;;10.73;71.50
41078;BME280;26823;42.662;23.352;2023-12-22T11:43:52;158976.63;;;10.99;70.16
41078;BME280;26823;42.662;23.352;2023-12-22T11:46:20;159084.44;;;11.40;68.86
41078;BME280;26823;42.662;23.352;2023-12-22T11:48:48;159122.22;;;11.54;66.90
41078;BME280;26823;42.662;23.352;2023-12-22T11:51:15;159133.00;;;11.58;67.29
41078;BME280;26823;42.662;23.352;2023-12-22T11:53:41;159050.75;;;11.27;67.05
41078;BME280;26823;42.662;23.352;2023-12-22T11:56:08;159010.31;;;11.12;64.19
41078;BME280;26823;42.662;23.352;2023-12-22T12:01:05;158791.97;;;10.28;66.14
41078;BME280;26823;42.662;23.352;2023-12-22T12:03:31;158681.53;;;9.86;65.94
41078;BME280;26823;42.662;23.352;2023-12-22T12:08:35;158579.19;;;9.46;67.94
41078;BME280;26823;42.662;23.352;2023-12-22T12:11:01;158519.97;;;9.24;69.97
41078;BME280;26823;42.662;23.352;2023-12-22T12:13:31;158413.63;;;8.83;69.37
41078;BME280;26823;42.662;23.352;2023-12-22T12:15:58;158363.84;;;8.64;69.46
41078;BME280;26823;42.662;23.352;2023-12-22T12:18:29;158295.16;;;8.38;70.43
41078;BME280;26823;42.662;23.352;2023-12-22T12:20:55;158250.75;;;8.21;71.69
41078;BME280;26823;42.662;23.352;2023-12-22T12:23:22;158230.56;;;8.13;72.27
41078;BME280;26823;42.662;23.352;2023-12-22T12:25:48;158182.19;;;7.94;72.32
41078;BME280;26823;42.662;23.352;2023-12-22T12:28:15;158149.88;;;7.82;73.61
41078;BME280;26823;42.662;23.352;2023-12-22T12:30:43;158109.56;;;7.66;72.20
41078;BME280;26823;42.662;23.352;2023-12-22T12:33:12;158079.97;;;7.55;73.02
41078;BME280;26823;42.662;23.352;2023-12-22T12:35:39;158055.72;;;7.46;72.99
41078;BME280;26823;42.662;23.352;2023-12-22T12:38:05;158028.84;;;7.35;72.69
41078;BME280;26823;42.662;23.352;2023-12-22T12:40:31;158014.09;;;7.30;73.71
41078;BME280;26823;42.662;23.352;2023-12-22T12:42:59;157984.50;;;7.18;72.15
41078;BME280;26823;42.662;23.352;2023-12-22T12:45:25;157976.41;;;7.15;72.01
41078;BME280;26823;42.662;23.352;2023-12-22T12:47:55;157969.69;;;7.13;71.97
41078;BME280;26823;42.662;23.352;2023-12-22T12:50:22;157980.50;;;7.17;72.66
41078;BME280;26823;42.662;23.352;2023-12-22T12:52:49;157964.34;;;7.11;73.00
41078;BME280;26823;42.662;23.352;2023-12-22T12:55:17;157980.50;;;7.17;73.02